AC417 CYUL-CYYZ
Flight info
| Callsign | AC417 |
|---|---|
| Flight time | 1h 0m |
| Altitude | 36000 |
| Route | BOBKI DCT MELTI DCT TORNI RAGID6 |
| Aircraft | A320/M-SDE3FGHIRWY/LB1 |
Departure
| Time | 2026-05-06 21:15 |
|---|---|
| Airport | Montreal / Pierre Elliott Trudeau International Airport (CYUL) |
Arrival
| Time | 2026-05-06 22:16 |
|---|---|
| Airport | Toronto Pearson International Airport (CYYZ) |
| Time | Latitude | Longitude | Altitude | Speed | Heading |
|---|---|---|---|---|---|
| 2026-05-06 20:40 | 45.45938 | -73.74952 | 111 ft | 0 kts | 181° |
| 2026-05-06 21:02 | 45.45955 | -73.74952 | 109 ft | 4 kts | 176° |
| 2026-05-06 21:03 | 45.45980 | -73.74961 | 109 ft | 4 kts | 144° |
| 2026-05-06 21:03 | 45.45996 | -73.74985 | 110 ft | 1 kts | 114° |
| 2026-05-06 21:06 | 45.45992 | -73.74973 | 108 ft | 3 kts | 112° |
| 2026-05-06 21:06 | 45.45987 | -73.74923 | 111 ft | 3 kts | 90° |
| 2026-05-06 21:06 | 45.45987 | -73.74918 | 111 ft | 0 kts | 89° |
| 2026-05-06 21:07 | 45.45987 | -73.74903 | 111 ft | 4 kts | 88° |
| 2026-05-06 21:07 | 45.45989 | -73.74842 | 111 ft | 9 kts | 88° |
| 2026-05-06 21:07 | 45.45968 | -73.74741 | 110 ft | 11 kts | 123° |
| 2026-05-06 21:07 | 45.45950 | -73.74642 | 110 ft | 9 kts | 91° |
| 2026-05-06 21:08 | 45.45969 | -73.74545 | 109 ft | 12 kts | 70° |
| 2026-05-06 21:08 | 45.46000 | -73.74438 | 108 ft | 10 kts | 68° |
| 2026-05-06 21:08 | 45.46044 | -73.74328 | 107 ft | 15 kts | 49° |
| 2026-05-06 21:08 | 45.46120 | -73.74215 | 107 ft | 15 kts | 51° |
| 2026-05-06 21:09 | 45.46143 | -73.74073 | 105 ft | 17 kts | 73° |
| 2026-05-06 21:09 | 45.46222 | -73.73947 | 107 ft | 14 kts | 41° |
| 2026-05-06 21:09 | 45.46303 | -73.73844 | 106 ft | 17 kts | 41° |
| 2026-05-06 21:09 | 45.46399 | -73.73715 | 111 ft | 20 kts | 43° |
| 2026-05-06 21:10 | 45.46509 | -73.73575 | 111 ft | 23 kts | 42° |
| 2026-05-06 21:10 | 45.46635 | -73.73407 | 113 ft | 22 kts | 42° |
| 2026-05-06 21:10 | 45.46751 | -73.73254 | 111 ft | 23 kts | 43° |
| 2026-05-06 21:10 | 45.46876 | -73.73091 | 115 ft | 26 kts | 42° |
| 2026-05-06 21:11 | 45.47013 | -73.72912 | 119 ft | 23 kts | 43° |
| 2026-05-06 21:11 | 45.47144 | -73.72739 | 120 ft | 28 kts | 42° |
| 2026-05-06 21:11 | 45.47297 | -73.72537 | 118 ft | 32 kts | 49° |
| 2026-05-06 21:11 | 45.47458 | -73.72328 | 121 ft | 32 kts | 42° |
| 2026-05-06 21:12 | 45.47589 | -73.72155 | 124 ft | 22 kts | 42° |
| 2026-05-06 21:12 | 45.47663 | -73.72059 | 125 ft | 14 kts | 43° |
| 2026-05-06 21:12 | 45.47741 | -73.71957 | 125 ft | 17 kts | 42° |
| 2026-05-06 21:12 | 45.47809 | -73.71831 | 126 ft | 16 kts | 93° |
| 2026-05-06 21:13 | 45.47764 | -73.71732 | 124 ft | 0 kts | 133° |
| 2026-05-06 21:13 | 45.47756 | -73.71720 | 122 ft | 4 kts | 133° |
| 2026-05-06 21:14 | 45.47723 | -73.71680 | 126 ft | 8 kts | 143° |
| 2026-05-06 21:14 | 45.47659 | -73.71665 | 124 ft | 12 kts | 204° |
| 2026-05-06 21:14 | 45.47582 | -73.71762 | 127 ft | 25 kts | 224° |
| 2026-05-06 21:14 | 45.47275 | -73.72159 | 116 ft | 95 kts | 223° |
| 2026-05-06 21:15 | 45.46658 | -73.72974 | 146 ft | 144 kts | 220° |
| 2026-05-06 21:15 | 45.45867 | -73.73937 | 534 ft | 153 kts | 219° |
| 2026-05-06 21:15 | 45.45008 | -73.74912 | 936 ft | 172 kts | 218° |
| 2026-05-06 21:15 | 45.44163 | -73.76219 | 1531 ft | 180 kts | 250° |
| 2026-05-06 21:16 | 45.43990 | -73.77963 | 2176 ft | 187 kts | 268° |
| 2026-05-06 21:16 | 45.43955 | -73.79921 | 2524 ft | 209 kts | 269° |
| 2026-05-06 21:16 | 45.43932 | -73.82071 | 2947 ft | 228 kts | 270° |
| 2026-05-06 21:16 | 45.43897 | -73.84441 | 3423 ft | 250 kts | 269° |
| 2026-05-06 21:17 | 45.43842 | -73.86977 | 4230 ft | 259 kts | 269° |
| 2026-05-06 21:17 | 45.43771 | -73.89577 | 4803 ft | 264 kts | 269° |
| 2026-05-06 21:17 | 45.43688 | -73.92185 | 4963 ft | 263 kts | 269° |
| 2026-05-06 21:17 | 45.43597 | -73.94787 | 4996 ft | 263 kts | 268° |
| 2026-05-06 21:18 | 45.43502 | -73.97379 | 5000 ft | 263 kts | 268° |
| 2026-05-06 21:18 | 45.43403 | -73.99977 | 5001 ft | 262 kts | 268° |
| 2026-05-06 21:18 | 45.43304 | -74.02573 | 5000 ft | 263 kts | 268° |
| 2026-05-06 21:18 | 45.43204 | -74.05171 | 5000 ft | 262 kts | 268° |
| 2026-05-06 21:19 | 45.43103 | -74.07764 | 5001 ft | 262 kts | 268° |
| 2026-05-06 21:19 | 45.43001 | -74.10356 | 4999 ft | 262 kts | 268° |
| 2026-05-06 21:19 | 45.42932 | -74.12079 | 5076 ft | 267 kts | 268° |
| 2026-05-06 21:19 | 45.42789 | -74.15623 | 6373 ft | 266 kts | 268° |
| 2026-05-06 21:20 | 45.42684 | -74.18245 | 7348 ft | 265 kts | 267° |
| 2026-05-06 21:20 | 45.42615 | -74.19975 | 8011 ft | 264 kts | 266° |
| 2026-05-06 21:20 | 45.42476 | -74.23444 | 9364 ft | 261 kts | 265° |
| 2026-05-06 21:20 | 45.42408 | -74.25151 | 10006 ft | 260 kts | 264° |
| 2026-05-06 21:21 | 45.42260 | -74.28691 | 10551 ft | 285 kts | 264° |
| 2026-05-06 21:21 | 45.42134 | -74.31632 | 11023 ft | 299 kts | 264° |
| 2026-05-06 21:21 | 45.42009 | -74.34608 | 11761 ft | 304 kts | 264° |
| 2026-05-06 21:21 | 45.41886 | -74.37588 | 12530 ft | 306 kts | 264° |
| 2026-05-06 21:22 | 45.41760 | -74.40629 | 13319 ft | 309 kts | 264° |
| 2026-05-06 21:22 | 45.41533 | -74.43676 | 14031 ft | 310 kts | 257° |
| 2026-05-06 21:22 | 45.41049 | -74.46671 | 14707 ft | 312 kts | 255° |
| 2026-05-06 21:22 | 45.40707 | -74.48706 | 15168 ft | 313 kts | 255° |
| 2026-05-06 21:23 | 45.40200 | -74.51731 | 15842 ft | 315 kts | 254° |
| 2026-05-06 21:23 | 45.39691 | -74.54771 | 16499 ft | 318 kts | 254° |
| 2026-05-06 21:23 | 45.39184 | -74.57803 | 17161 ft | 320 kts | 254° |
| 2026-05-06 21:23 | 45.38493 | -74.61944 | 18043 ft | 323 kts | 253° |
| 2026-05-06 21:24 | 45.37973 | -74.65061 | 18627 ft | 325 kts | 253° |
| 2026-05-06 21:24 | 45.37447 | -74.68211 | 19193 ft | 328 kts | 253° |
| 2026-05-06 21:24 | 45.36915 | -74.71376 | 19755 ft | 330 kts | 253° |
| 2026-05-06 21:24 | 45.36558 | -74.73486 | 20128 ft | 332 kts | 253° |
| 2026-05-06 21:25 | 45.35827 | -74.77782 | 20875 ft | 336 kts | 253° |
| 2026-05-06 21:25 | 45.35273 | -74.81016 | 21438 ft | 338 kts | 253° |
| 2026-05-06 21:25 | 45.34716 | -74.84277 | 21984 ft | 341 kts | 253° |
| 2026-05-06 21:25 | 45.34156 | -74.87566 | 22542 ft | 344 kts | 253° |
| 2026-05-06 21:26 | 45.33783 | -74.89753 | 22907 ft | 345 kts | 253° |
| 2026-05-06 21:26 | 45.33021 | -74.94210 | 23602 ft | 348 kts | 253° |
| 2026-05-06 21:26 | 45.32453 | -74.97516 | 24025 ft | 350 kts | 253° |
| 2026-05-06 21:26 | 45.31872 | -75.00886 | 24453 ft | 352 kts | 253° |
| 2026-05-06 21:27 | 45.31285 | -75.04275 | 24869 ft | 354 kts | 253° |
| 2026-05-06 21:27 | 45.30695 | -75.07681 | 25275 ft | 356 kts | 253° |
| 2026-05-06 21:27 | 45.30293 | -75.09992 | 25546 ft | 358 kts | 253° |
| 2026-05-06 21:27 | 45.29696 | -75.13432 | 25943 ft | 360 kts | 253° |
| 2026-05-06 21:28 | 45.29095 | -75.16892 | 26326 ft | 362 kts | 253° |
| 2026-05-06 21:28 | 45.28491 | -75.20363 | 26703 ft | 364 kts | 254° |
| 2026-05-06 21:28 | 45.27880 | -75.23869 | 27071 ft | 366 kts | 254° |
| 2026-05-06 21:28 | 45.27265 | -75.27382 | 27439 ft | 368 kts | 253° |
| 2026-05-06 21:29 | 45.26645 | -75.30917 | 27798 ft | 370 kts | 254° |
| 2026-05-06 21:29 | 45.26022 | -75.34472 | 28159 ft | 372 kts | 254° |
| 2026-05-06 21:29 | 45.25393 | -75.38046 | 28510 ft | 374 kts | 254° |
| 2026-05-06 21:29 | 45.24760 | -75.41636 | 28838 ft | 376 kts | 254° |
| 2026-05-06 21:30 | 45.24121 | -75.45250 | 29165 ft | 378 kts | 254° |
| 2026-05-06 21:30 | 45.23486 | -75.48835 | 29486 ft | 380 kts | 254° |
| 2026-05-06 21:30 | 45.22838 | -75.52481 | 29792 ft | 382 kts | 254° |
| 2026-05-06 21:30 | 45.22186 | -75.56142 | 30063 ft | 384 kts | 254° |
| 2026-05-06 21:31 | 45.21530 | -75.59827 | 30316 ft | 386 kts | 254° |
| 2026-05-06 21:31 | 45.20871 | -75.63523 | 30568 ft | 387 kts | 254° |
| 2026-05-06 21:31 | 45.20209 | -75.67230 | 30811 ft | 388 kts | 254° |
| 2026-05-06 21:31 | 45.19541 | -75.70953 | 31046 ft | 390 kts | 254° |
| 2026-05-06 21:32 | 45.18871 | -75.74685 | 31321 ft | 390 kts | 254° |
| 2026-05-06 21:32 | 45.17532 | -75.82118 | 31835 ft | 388 kts | 253° |
| 2026-05-06 21:32 | 45.16863 | -75.85823 | 31856 ft | 388 kts | 253° |
| 2026-05-06 21:33 | 45.15526 | -75.93209 | 31860 ft | 387 kts | 253° |
| 2026-05-06 21:33 | 45.14181 | -76.00588 | 31863 ft | 387 kts | 253° |
| 2026-05-06 21:34 | 45.12825 | -76.07957 | 31865 ft | 387 kts | 253° |
| 2026-05-06 21:34 | 45.11473 | -76.15320 | 31870 ft | 386 kts | 253° |
| 2026-05-06 21:35 | 45.10057 | -76.22605 | 31867 ft | 385 kts | 248° |
| 2026-05-06 21:35 | 45.07623 | -76.29347 | 31866 ft | 385 kts | 241° |
| 2026-05-06 21:36 | 45.05007 | -76.35972 | 31872 ft | 385 kts | 241° |
| 2026-05-06 21:36 | 45.02384 | -76.42574 | 31870 ft | 385 kts | 241° |
| 2026-05-06 21:37 | 44.99766 | -76.49180 | 31874 ft | 385 kts | 241° |
| 2026-05-06 21:37 | 44.97147 | -76.55788 | 31877 ft | 386 kts | 241° |
| 2026-05-06 21:38 | 44.94524 | -76.62394 | 31879 ft | 386 kts | 241° |
| 2026-05-06 21:38 | 44.91884 | -76.68996 | 31885 ft | 386 kts | 241° |
| 2026-05-06 21:39 | 44.89237 | -76.75598 | 31886 ft | 387 kts | 241° |
| 2026-05-06 21:39 | 44.86595 | -76.82205 | 31888 ft | 387 kts | 241° |
| 2026-05-06 21:40 | 44.83948 | -76.88811 | 31889 ft | 387 kts | 241° |
| 2026-05-06 21:40 | 44.81289 | -76.95407 | 31887 ft | 387 kts | 241° |
| 2026-05-06 21:41 | 44.78628 | -77.02004 | 31890 ft | 387 kts | 241° |
| 2026-05-06 21:41 | 44.75968 | -77.08586 | 31891 ft | 387 kts | 241° |
| 2026-05-06 21:42 | 44.73302 | -77.15167 | 31893 ft | 387 kts | 241° |
| 2026-05-06 21:42 | 44.70638 | -77.21745 | 31892 ft | 387 kts | 241° |
| 2026-05-06 21:43 | 44.67961 | -77.28317 | 31893 ft | 387 kts | 241° |
| 2026-05-06 21:43 | 44.65283 | -77.34882 | 31896 ft | 388 kts | 241° |
| 2026-05-06 21:44 | 44.62603 | -77.41451 | 31895 ft | 387 kts | 241° |
| 2026-05-06 21:44 | 44.59916 | -77.47998 | 31899 ft | 387 kts | 241° |
| 2026-05-06 21:45 | 44.57228 | -77.54537 | 31895 ft | 382 kts | 241° |
| 2026-05-06 21:45 | 44.55927 | -77.57701 | 31821 ft | 367 kts | 241° |
| 2026-05-06 21:45 | 44.54669 | -77.60757 | 31506 ft | 358 kts | 241° |
| 2026-05-06 21:46 | 44.53433 | -77.63751 | 31064 ft | 353 kts | 241° |
| 2026-05-06 21:46 | 44.52224 | -77.66681 | 30593 ft | 349 kts | 242° |
| 2026-05-06 21:46 | 44.50999 | -77.69653 | 30125 ft | 346 kts | 242° |
| 2026-05-06 21:46 | 44.49794 | -77.72560 | 29600 ft | 343 kts | 242° |
| 2026-05-06 21:47 | 44.48596 | -77.75436 | 29062 ft | 340 kts | 242° |
| 2026-05-06 21:47 | 44.47431 | -77.78249 | 28555 ft | 337 kts | 242° |
| 2026-05-06 21:47 | 44.46268 | -77.81079 | 28061 ft | 334 kts | 242° |
| 2026-05-06 21:47 | 44.45123 | -77.83885 | 27581 ft | 330 kts | 242° |
| 2026-05-06 21:48 | 44.43996 | -77.86671 | 27109 ft | 327 kts | 242° |
| 2026-05-06 21:48 | 44.42886 | -77.89435 | 26642 ft | 325 kts | 242° |
| 2026-05-06 21:48 | 44.41789 | -77.92186 | 26186 ft | 322 kts | 242° |
| 2026-05-06 21:48 | 44.40684 | -77.94894 | 25734 ft | 319 kts | 240° |
| 2026-05-06 21:49 | 44.39554 | -77.97554 | 25286 ft | 317 kts | 239° |
| 2026-05-06 21:49 | 44.38416 | -78.00178 | 24997 ft | 315 kts | 239° |
| 2026-05-06 21:49 | 44.37273 | -78.02798 | 24756 ft | 315 kts | 239° |
| 2026-05-06 21:49 | 44.36137 | -78.05411 | 24521 ft | 314 kts | 239° |
| 2026-05-06 21:50 | 44.35011 | -78.08013 | 24278 ft | 313 kts | 239° |
| 2026-05-06 21:50 | 44.33901 | -78.10620 | 24042 ft | 311 kts | 239° |
| 2026-05-06 21:50 | 44.32809 | -78.13224 | 23806 ft | 310 kts | 240° |
| 2026-05-06 21:50 | 44.31723 | -78.15820 | 23578 ft | 309 kts | 240° |
| 2026-05-06 21:51 | 44.30641 | -78.18408 | 23324 ft | 308 kts | 239° |
| 2026-05-06 21:51 | 44.29561 | -78.20978 | 23046 ft | 306 kts | 239° |
| 2026-05-06 21:51 | 44.28482 | -78.23536 | 22773 ft | 305 kts | 239° |
| 2026-05-06 21:51 | 44.27407 | -78.26082 | 22505 ft | 304 kts | 239° |
| 2026-05-06 21:52 | 44.26332 | -78.28623 | 22235 ft | 303 kts | 239° |
| 2026-05-06 21:52 | 44.25261 | -78.31150 | 21972 ft | 302 kts | 239° |
| 2026-05-06 21:52 | 44.24197 | -78.33662 | 21709 ft | 300 kts | 239° |
| 2026-05-06 21:52 | 44.23138 | -78.36160 | 21450 ft | 299 kts | 239° |
| 2026-05-06 21:53 | 44.22079 | -78.38656 | 21190 ft | 298 kts | 239° |
| 2026-05-06 21:53 | 44.21033 | -78.41123 | 20780 ft | 295 kts | 239° |
| 2026-05-06 21:53 | 44.19991 | -78.43577 | 20345 ft | 293 kts | 239° |
| 2026-05-06 21:53 | 44.18957 | -78.46012 | 19920 ft | 291 kts | 239° |
| 2026-05-06 21:54 | 44.17931 | -78.48430 | 19493 ft | 289 kts | 239° |
| 2026-05-06 21:54 | 44.16907 | -78.50836 | 19090 ft | 288 kts | 239° |
| 2026-05-06 21:54 | 44.15885 | -78.53220 | 18697 ft | 286 kts | 239° |
| 2026-05-06 21:54 | 44.14867 | -78.55594 | 18299 ft | 285 kts | 239° |
| 2026-05-06 21:55 | 44.13856 | -78.57959 | 17865 ft | 283 kts | 240° |
| 2026-05-06 21:55 | 44.12855 | -78.60313 | 17414 ft | 282 kts | 240° |
| 2026-05-06 21:55 | 44.11859 | -78.62655 | 17002 ft | 280 kts | 240° |
| 2026-05-06 21:55 | 44.10864 | -78.64983 | 16578 ft | 279 kts | 240° |
| 2026-05-06 21:56 | 44.09872 | -78.67301 | 16168 ft | 279 kts | 240° |
| 2026-05-06 21:56 | 44.08880 | -78.69609 | 15767 ft | 278 kts | 240° |
| 2026-05-06 21:56 | 44.07891 | -78.71912 | 15370 ft | 277 kts | 240° |
| 2026-05-06 21:56 | 44.06906 | -78.74205 | 14973 ft | 276 kts | 241° |
| 2026-05-06 21:57 | 44.05920 | -78.76498 | 14583 ft | 276 kts | 241° |
| 2026-05-06 21:57 | 44.04935 | -78.78783 | 14199 ft | 275 kts | 241° |
| 2026-05-06 21:57 | 44.03950 | -78.81060 | 13806 ft | 275 kts | 240° |
| 2026-05-06 21:57 | 44.02940 | -78.83317 | 13399 ft | 275 kts | 240° |
| 2026-05-06 21:58 | 44.01917 | -78.85553 | 12985 ft | 274 kts | 239° |
| 2026-05-06 21:58 | 44.00893 | -78.87778 | 12580 ft | 273 kts | 239° |
| 2026-05-06 21:58 | 43.99871 | -78.89996 | 12164 ft | 272 kts | 240° |
| 2026-05-06 21:58 | 43.98853 | -78.92206 | 11757 ft | 271 kts | 240° |
| 2026-05-06 21:59 | 43.97841 | -78.94411 | 11349 ft | 271 kts | 240° |
| 2026-05-06 21:59 | 43.96831 | -78.96612 | 10966 ft | 270 kts | 240° |
| 2026-05-06 21:59 | 43.95825 | -78.98801 | 10579 ft | 268 kts | 240° |
| 2026-05-06 21:59 | 43.94822 | -79.00980 | 10220 ft | 267 kts | 240° |
| 2026-05-06 22:00 | 43.93843 | -79.03107 | 10066 ft | 257 kts | 240° |
| 2026-05-06 22:00 | 43.92889 | -79.05184 | 9776 ft | 254 kts | 240° |
| 2026-05-06 22:00 | 43.91944 | -79.07244 | 9391 ft | 252 kts | 240° |
| 2026-05-06 22:00 | 43.91005 | -79.09291 | 8974 ft | 252 kts | 240° |
| 2026-05-06 22:01 | 43.90072 | -79.11320 | 8543 ft | 252 kts | 240° |
| 2026-05-06 22:01 | 43.89130 | -79.13365 | 8114 ft | 252 kts | 240° |
| 2026-05-06 22:01 | 43.88187 | -79.15409 | 8013 ft | 253 kts | 240° |
| 2026-05-06 22:01 | 43.87236 | -79.17468 | 8020 ft | 254 kts | 240° |
| 2026-05-06 22:02 | 43.86279 | -79.19534 | 8020 ft | 255 kts | 239° |
| 2026-05-06 22:02 | 43.85321 | -79.21603 | 8021 ft | 255 kts | 239° |
| 2026-05-06 22:02 | 43.84368 | -79.23666 | 8026 ft | 254 kts | 240° |
| 2026-05-06 22:02 | 43.83414 | -79.25730 | 8026 ft | 254 kts | 239° |
| 2026-05-06 22:03 | 43.82458 | -79.27790 | 8018 ft | 254 kts | 239° |
| 2026-05-06 22:03 | 43.81502 | -79.29850 | 8023 ft | 254 kts | 239° |
| 2026-05-06 22:03 | 43.80549 | -79.31907 | 8019 ft | 254 kts | 239° |
| 2026-05-06 22:03 | 43.79595 | -79.33963 | 8019 ft | 254 kts | 239° |
| 2026-05-06 22:04 | 43.78546 | -79.35933 | 8018 ft | 256 kts | 229° |
| 2026-05-06 22:04 | 43.77157 | -79.37507 | 8018 ft | 259 kts | 219° |
| 2026-05-06 22:04 | 43.75679 | -79.38935 | 8017 ft | 259 kts | 219° |
| 2026-05-06 22:04 | 43.74203 | -79.40364 | 8015 ft | 260 kts | 219° |
| 2026-05-06 22:05 | 43.73223 | -79.41313 | 8013 ft | 259 kts | 219° |
| 2026-05-06 22:05 | 43.71746 | -79.42749 | 8011 ft | 260 kts | 219° |
| 2026-05-06 22:05 | 43.69841 | -79.44597 | 8007 ft | 246 kts | 219° |
| 2026-05-06 22:05 | 43.68462 | -79.45928 | 8012 ft | 235 kts | 219° |
| 2026-05-06 22:06 | 43.67156 | -79.47187 | 8006 ft | 223 kts | 220° |
| 2026-05-06 22:06 | 43.65892 | -79.48408 | 8010 ft | 217 kts | 220° |
| 2026-05-06 22:06 | 43.64661 | -79.49602 | 8011 ft | 216 kts | 220° |
| 2026-05-06 22:06 | 43.63428 | -79.50784 | 8009 ft | 216 kts | 220° |
| 2026-05-06 22:07 | 43.62206 | -79.51950 | 8012 ft | 216 kts | 220° |
| 2026-05-06 22:07 | 43.60968 | -79.53130 | 8011 ft | 216 kts | 220° |
| 2026-05-06 22:07 | 43.59742 | -79.54329 | 8009 ft | 215 kts | 225° |
| 2026-05-06 22:07 | 43.58698 | -79.55769 | 7831 ft | 211 kts | 231° |
| 2026-05-06 22:08 | 43.57690 | -79.57240 | 7451 ft | 211 kts | 231° |
| 2026-05-06 22:08 | 43.56678 | -79.58715 | 7079 ft | 212 kts | 230° |
| 2026-05-06 22:08 | 43.55661 | -79.60194 | 6698 ft | 213 kts | 230° |
| 2026-05-06 22:08 | 43.54642 | -79.61677 | 6330 ft | 214 kts | 230° |
| 2026-05-06 22:09 | 43.53613 | -79.63173 | 5947 ft | 215 kts | 230° |
| 2026-05-06 22:09 | 43.52586 | -79.64668 | 5573 ft | 215 kts | 230° |
| 2026-05-06 22:09 | 43.51556 | -79.66165 | 5222 ft | 215 kts | 230° |
| 2026-05-06 22:09 | 43.50874 | -79.67155 | 4988 ft | 215 kts | 230° |
| 2026-05-06 22:10 | 43.49604 | -79.69261 | 4513 ft | 211 kts | 250° |
| 2026-05-06 22:10 | 43.49433 | -79.71194 | 4148 ft | 204 kts | 284° |
| 2026-05-06 22:10 | 43.49756 | -79.72407 | 3894 ft | 205 kts | 296° |
| 2026-05-06 22:10 | 43.50431 | -79.74147 | 3524 ft | 207 kts | 300° |
| 2026-05-06 22:11 | 43.51144 | -79.75863 | 3238 ft | 205 kts | 300° |
| 2026-05-06 22:11 | 43.51891 | -79.77484 | 3130 ft | 196 kts | 313° |
| 2026-05-06 22:11 | 43.53004 | -79.78474 | 3041 ft | 190 kts | 341° |
| 2026-05-06 22:11 | 43.54318 | -79.78558 | 3026 ft | 193 kts | 11° |
| 2026-05-06 22:12 | 43.55821 | -79.77259 | 3040 ft | 199 kts | 43° |
| 2026-05-06 22:12 | 43.56742 | -79.75916 | 3058 ft | 184 kts | 43° |
| 2026-05-06 22:12 | 43.57578 | -79.74696 | 2974 ft | 168 kts | 43° |
| 2026-05-06 22:12 | 43.58108 | -79.73928 | 2876 ft | 160 kts | 42° |
| 2026-05-06 22:13 | 43.58856 | -79.72846 | 2695 ft | 153 kts | 42° |
| 2026-05-06 22:13 | 43.59575 | -79.71806 | 2517 ft | 148 kts | 42° |
| 2026-05-06 22:13 | 43.60279 | -79.70790 | 2309 ft | 146 kts | 42° |
| 2026-05-06 22:13 | 43.60965 | -79.69796 | 2108 ft | 144 kts | 42° |
| 2026-05-06 22:14 | 43.61662 | -79.68788 | 1917 ft | 143 kts | 42° |
| 2026-05-06 22:14 | 43.62339 | -79.67807 | 1717 ft | 142 kts | 41° |
| 2026-05-06 22:14 | 43.63025 | -79.66812 | 1496 ft | 141 kts | 42° |
| 2026-05-06 22:14 | 43.63691 | -79.65847 | 1285 ft | 138 kts | 43° |
| 2026-05-06 22:15 | 43.64347 | -79.64893 | 1082 ft | 136 kts | 44° |
| 2026-05-06 22:15 | 43.64988 | -79.63963 | 918 ft | 133 kts | 44° |
| 2026-05-06 22:15 | 43.65622 | -79.63031 | 744 ft | 133 kts | 45° |
| 2026-05-06 22:15 | 43.66251 | -79.62111 | 589 ft | 129 kts | 46° |
| 2026-05-06 22:16 | 43.66730 | -79.61422 | 546 ft | 48 kts | 44° |
| 2026-05-06 22:16 | 43.66900 | -79.61192 | 557 ft | 30 kts | 45° |
| 2026-05-06 22:16 | 43.67038 | -79.61070 | 551 ft | 18 kts | 17° |
| 2026-05-06 22:16 | 43.67147 | -79.61058 | 547 ft | 13 kts | 356° |
| 2026-05-06 22:17 | 43.67153 | -79.61059 | 547 ft | 0 kts | 356° |
| 2026-05-06 22:18 | 43.67154 | -79.61059 | 547 ft | 1 kts | 356° |
| 2026-05-06 22:19 | 43.67166 | -79.61062 | 547 ft | 2 kts | 347° |
| 2026-05-06 22:19 | 43.67179 | -79.61074 | 546 ft | 2 kts | 315° |
| 2026-05-06 22:19 | 43.67182 | -79.61083 | 547 ft | 0 kts | 298° |
| 2026-05-06 22:19 | 43.67183 | -79.61088 | 547 ft | 2 kts | 288° |
| 2026-05-06 22:20 | 43.67187 | -79.61118 | 547 ft | 5 kts | 280° |
| 2026-05-06 22:20 | 43.67192 | -79.61143 | 548 ft | 1 kts | 287° |
| 2026-05-06 22:20 | 43.67192 | -79.61145 | 548 ft | 1 kts | 287° |
| 2026-05-06 22:20 | 43.67200 | -79.61167 | 553 ft | 4 kts | 300° |
| 2026-05-06 22:21 | 43.67231 | -79.61209 | 550 ft | 8 kts | 321° |
| 2026-05-06 22:21 | 43.67290 | -79.61282 | 551 ft | 15 kts | 317° |
| 2026-05-06 22:21 | 43.67371 | -79.61386 | 560 ft | 14 kts | 317° |
| 2026-05-06 22:21 | 43.67444 | -79.61483 | 555 ft | 14 kts | 316° |
| 2026-05-06 22:22 | 43.67520 | -79.61581 | 556 ft | 15 kts | 317° |
| 2026-05-06 22:22 | 43.67596 | -79.61670 | 569 ft | 12 kts | 335° |
| 2026-05-06 22:22 | 43.67668 | -79.61634 | 570 ft | 12 kts | 48° |
| 2026-05-06 22:22 | 43.67724 | -79.61548 | 564 ft | 11 kts | 46° |
| 2026-05-06 22:23 | 43.67773 | -79.61528 | 567 ft | 7 kts | 336° |
| 2026-05-06 22:23 | 43.67813 | -79.61551 | 565 ft | 6 kts | 355° |
| 2026-05-06 22:23 | 43.67850 | -79.61562 | 562 ft | 6 kts | 323° |
| 2026-05-06 22:23 | 43.67870 | -79.61587 | 562 ft | 1 kts | 318° |
| 2026-05-06 22:24 | 43.67871 | -79.61588 | 562 ft | 0 kts | 318° |
| 2026-05-06 22:24 | 43.67878 | -79.61596 | 566 ft | 1 kts | 318° |
| 2026-05-06 22:24 | 43.67879 | -79.61598 | 566 ft | 0 kts | 318° |
| 2026-05-06 22:25 | 43.67889 | -79.61610 | 569 ft | 4 kts | 319° |
| 2026-05-06 22:25 | 43.67892 | -79.61614 | 568 ft | 0 kts | 319° |